createdAt,value
2017-11-25T00:01:04.343Z,11.18
2017-11-25T00:03:32.665Z,11.73
2017-11-25T00:06:00.940Z,11.75
2017-11-25T00:08:29.958Z,11.85
2017-11-25T00:11:00.222Z,12.20
2017-11-25T00:13:28.514Z,11.45
2017-11-25T00:15:57.357Z,11.45
2017-11-25T00:18:25.898Z,11.80
2017-11-25T00:20:54.178Z,12.60
2017-11-25T00:23:22.450Z,12.60
2017-11-25T00:25:51.594Z,12.32
2017-11-25T00:28:20.036Z,12.63
2017-11-25T00:30:48.296Z,13.13
2017-11-25T00:33:17.334Z,11.52
2017-11-25T00:35:47.769Z,12.68
2017-11-25T00:38:18.767Z,12.37
2017-11-25T00:40:48.925Z,12.20
2017-11-25T00:43:18.568Z,12.93
2017-11-25T00:45:49.315Z,12.73
2017-11-25T00:48:22.765Z,12.77
2017-11-25T00:50:55.649Z,13.23
2017-11-25T00:53:30.937Z,12.15
2017-11-25T00:56:02.531Z,12.75
2017-11-25T00:58:36.519Z,12.18
2017-11-25T01:01:10.719Z,12.55
2017-11-25T01:03:39.773Z,13.93
2017-11-25T02:47:14.646Z,14.65
2017-11-25T02:53:05.462Z,17.02
2017-11-25T02:55:54.065Z,15.85
2017-11-25T02:58:53.589Z,16.48
2017-11-25T03:08:11.107Z,16.45
2017-11-25T03:10:41.288Z,16.27
2017-11-25T03:13:09.646Z,17.75
2017-11-25T03:15:38.078Z,16.65
2017-11-25T03:18:06.956Z,17.05
2017-11-25T03:23:36.043Z,17.05
2017-11-25T03:26:05.182Z,18.48
2017-11-25T03:28:33.576Z,16.58
2017-11-25T03:31:02.752Z,16.55
2017-11-25T03:33:31.079Z,17.80
2017-11-25T03:35:59.581Z,17.17
2017-11-25T03:38:41.563Z,16.87
2017-11-25T03:41:09.971Z,18.75
2017-11-25T03:43:38.355Z,18.52
2017-11-25T03:46:07.581Z,17.55
2017-11-25T03:48:35.976Z,18.50
2017-11-25T03:51:05.360Z,17.75
2017-11-25T03:53:34.613Z,18.37
2017-11-25T03:56:03.592Z,19.67
2017-11-25T03:58:38.876Z,16.37
2017-11-25T04:01:07.267Z,17.55
2017-11-25T04:03:36.236Z,18.35
2017-11-25T04:06:04.631Z,19.25
2017-11-25T04:08:34.183Z,19.17
2017-11-25T04:11:02.641Z,18.05
2017-11-25T04:13:31.020Z,16.52
2017-11-25T04:16:00.192Z,17.75
2017-11-25T04:18:28.540Z,17.92
2017-11-25T04:20:57.776Z,15.23
2017-11-25T04:23:26.972Z,16.12
2017-11-25T04:25:55.922Z,18.70
2017-11-25T04:28:24.332Z,17.02
2017-11-25T04:30:52.759Z,16.67
2017-11-25T04:33:21.103Z,16.23
2017-11-25T04:35:50.945Z,16.00
2017-11-25T04:38:19.906Z,16.95
2017-11-25T04:40:49.035Z,16.33
2017-11-25T04:43:17.379Z,18.40
2017-11-25T04:45:45.810Z,17.40
2017-11-25T04:48:15.035Z,18.12
2017-11-25T04:50:43.530Z,16.62
2017-11-25T04:53:12.666Z,16.27
2017-11-25T04:55:41.138Z,17.48
2017-11-25T04:58:09.573Z,17.08
2017-11-25T05:00:39.380Z,16.75
2017-11-25T05:03:07.756Z,16.77
2017-11-25T05:05:36.137Z,18.17
2017-11-25T05:08:04.727Z,17.10
2017-11-25T05:10:33.089Z,18.05
2017-11-25T05:13:01.458Z,15.55
2017-11-25T05:15:29.769Z,17.25
2017-11-25T05:18:14.379Z,17.80
2017-11-25T05:20:42.733Z,16.98
2017-11-25T05:23:11.060Z,18.27
2017-11-25T05:25:39.449Z,17.75
2017-11-25T05:28:14.211Z,17.52
2017-11-25T05:30:42.789Z,18.65
2017-11-25T05:33:11.152Z,17.27
2017-11-25T05:35:40.331Z,17.90
2017-11-25T05:38:10.350Z,18.33
2017-11-25T05:40:41.591Z,16.48
2017-11-25T05:43:10.050Z,15.32
2017-11-25T05:45:38.527Z,14.98
2017-11-25T05:48:12.069Z,13.65
2017-11-25T05:50:40.608Z,15.00
2017-11-25T05:53:09.095Z,16.40
2017-11-25T05:55:37.536Z,16.67
2017-11-25T06:00:47.159Z,14.63
2017-11-25T06:03:16.393Z,15.45
2017-11-25T06:05:45.697Z,16.25
2017-11-25T06:08:23.450Z,16.12
2017-11-25T06:11:04.816Z,14.65
2017-11-25T06:13:41.613Z,16.67
2017-11-25T06:16:10.174Z,17.60
2017-11-25T06:18:40.523Z,13.23
2017-11-25T06:21:08.923Z,16.10
2017-11-25T06:23:46.344Z,16.10
2017-11-25T06:26:18.982Z,16.12
2017-11-25T06:28:48.464Z,17.70
2017-11-25T06:31:16.856Z,16.80
2017-11-25T06:33:46.381Z,16.20
2017-11-25T06:36:19.363Z,15.35
2017-11-25T06:38:47.808Z,16.30
2017-11-25T06:41:16.189Z,14.25
2017-11-25T06:43:45.569Z,14.60
2017-11-25T06:46:13.928Z,17.02
2017-11-25T06:48:42.406Z,14.57
2017-11-25T06:51:10.758Z,15.75
2017-11-25T06:53:42.355Z,17.30
2017-11-25T06:56:11.609Z,16.25
2017-11-25T06:58:43.753Z,16.02
2017-11-25T07:01:12.120Z,16.42
2017-11-25T07:03:40.549Z,17.15
2017-11-25T07:06:14.336Z,16.83
2017-11-25T07:08:47.002Z,16.12
2017-11-25T07:11:15.407Z,15.10
2017-11-25T07:13:43.961Z,15.40
2017-11-25T07:16:24.306Z,15.45
2017-11-25T07:18:52.687Z,16.67
2017-11-25T07:21:21.851Z,16.85
2017-11-25T07:23:50.317Z,14.93
2017-11-25T07:26:36.260Z,16.27
2017-11-25T07:29:04.717Z,15.02
2017-11-25T07:31:33.152Z,17.45
2017-11-25T07:34:01.505Z,15.27
2017-11-25T07:36:34.793Z,16.42
2017-11-25T07:39:03.444Z,16.45
2017-11-25T07:41:32.089Z,15.50
2017-11-25T07:44:02.150Z,14.57
2017-11-25T07:46:39.329Z,16.42
2017-11-25T07:49:10.718Z,15.10
2017-11-25T07:51:39.988Z,14.85
2017-11-25T07:54:20.120Z,15.00
2017-11-25T07:56:48.845Z,16.40
2017-11-25T07:59:17.309Z,16.02
2017-11-25T08:01:47.561Z,15.30
2017-11-25T08:04:21.800Z,15.90
2017-11-25T08:06:56.965Z,16.50
2017-11-25T08:09:26.441Z,17.10
2017-11-25T08:11:59.780Z,16.50
2017-11-25T08:14:45.246Z,16.62
2017-11-25T08:17:30.511Z,16.48
2017-11-25T08:19:58.862Z,15.60
2017-11-25T08:22:29.677Z,16.70
2017-11-25T08:25:02.177Z,17.23
2017-11-25T08:27:30.603Z,18.05
2017-11-25T08:29:59.899Z,15.80
2017-11-25T08:32:29.162Z,17.27
2017-11-25T08:34:59.463Z,17.62
2017-11-25T08:37:28.830Z,16.35
2017-11-25T08:40:06.264Z,17.00
2017-11-25T08:42:35.470Z,14.93
2017-11-25T08:45:03.745Z,17.35
2017-11-25T08:47:32.116Z,14.77
2017-11-25T08:53:10.806Z,15.88
2017-11-25T08:55:39.164Z,15.13
2017-11-25T08:58:07.687Z,15.38
2017-11-25T09:00:36.174Z,16.30
2017-11-25T09:03:05.396Z,15.90
2017-11-25T09:05:33.886Z,13.98
2017-11-25T09:08:04.412Z,15.45
2017-11-25T09:10:33.042Z,15.25
2017-11-25T09:13:02.132Z,16.52
2017-11-25T09:15:32.124Z,15.23
2017-11-25T09:18:00.449Z,15.68
2017-11-25T09:20:29.361Z,14.87
2017-11-25T09:22:57.696Z,16.12
2017-11-25T09:25:26.781Z,15.68
2017-11-25T09:27:57.184Z,16.12
2017-11-25T09:30:25.561Z,16.17
2017-11-25T09:32:55.463Z,15.13
2017-11-25T09:35:23.820Z,17.30
2017-11-25T09:37:52.179Z,16.73
2017-11-25T09:40:21.025Z,16.15
2017-11-25T09:42:49.410Z,15.30
2017-11-25T09:45:17.751Z,15.13
2017-11-25T09:47:46.091Z,17.00
2017-11-25T09:50:25.479Z,16.08
2017-11-25T09:52:53.961Z,16.75
2017-11-25T09:55:22.269Z,15.45
2017-11-25T09:57:51.414Z,18.10
2017-11-25T10:00:20.891Z,15.93
2017-11-25T10:02:49.288Z,15.80
2017-11-25T10:05:17.710Z,17.75
2017-11-25T10:07:46.876Z,16.87
2017-11-25T10:10:15.201Z,16.48
2017-11-25T10:12:44.250Z,17.17
2017-11-25T10:15:17.896Z,18.48
2017-11-25T10:17:46.984Z,15.20
2017-11-25T10:20:16.115Z,18.25
2017-11-25T10:22:44.716Z,15.27
2017-11-25T10:25:13.048Z,15.90
2017-11-25T10:30:52.451Z,15.63
2017-11-25T10:33:20.889Z,17.25
2017-11-25T10:36:21.001Z,15.95
2017-11-25T10:38:49.570Z,16.70
2017-11-25T10:41:18.626Z,17.10
2017-11-25T10:43:46.931Z,18.30
2017-11-25T10:46:15.281Z,17.23
2017-11-25T10:48:43.644Z,17.35
2017-11-25T10:54:06.662Z,16.15
2017-11-25T10:56:35.084Z,17.65
2017-11-25T10:59:03.375Z,16.30
2017-11-25T11:01:32.461Z,15.25
2017-11-25T11:04:15.001Z,15.68
2017-11-25T11:06:43.515Z,16.83
2017-11-25T11:09:15.150Z,16.95
2017-11-25T11:11:43.581Z,17.02
2017-11-25T11:14:13.472Z,17.52
2017-11-25T11:17:06.100Z,17.62
2017-11-25T11:19:34.512Z,15.85
2017-11-25T11:22:02.793Z,16.23
2017-11-25T11:24:31.135Z,16.40
2017-11-25T11:26:59.373Z,15.75
2017-11-25T11:29:27.729Z,15.40
2017-11-25T11:31:56.044Z,15.10
2017-11-25T11:34:24.325Z,14.55
2017-11-25T11:36:53.427Z,15.00
2017-11-25T11:39:22.541Z,15.38
2017-11-25T11:41:50.943Z,15.00
2017-11-25T11:44:19.270Z,13.98
2017-11-25T11:46:47.654Z,13.40
2017-11-25T11:49:16.800Z,14.80
2017-11-25T11:51:48.346Z,14.30
2017-11-25T11:54:18.258Z,13.35
2017-11-25T11:56:49.990Z,11.48
2017-11-25T11:59:18.763Z,12.05
2017-11-25T12:01:48.912Z,13.60
2017-11-25T12:04:17.379Z,11.45
2017-11-25T12:06:45.716Z,11.43
2017-11-25T12:09:14.797Z,11.18
2017-11-25T12:11:43.148Z,10.55
2017-11-25T12:16:57.037Z,11.43
2017-11-25T12:19:25.311Z,9.18
2017-11-25T12:21:53.782Z,9.05
2017-11-25T12:24:23.107Z,10.10
2017-11-25T12:26:52.232Z,9.20
2017-11-25T12:29:20.522Z,8.68
2017-11-25T12:31:48.918Z,9.10
2017-11-25T12:34:17.349Z,8.18
2017-11-25T12:36:47.353Z,7.78
2017-11-25T12:39:15.646Z,8.45
2017-11-25T12:41:44.781Z,7.55
2017-11-25T12:44:13.137Z,9.05
2017-11-25T12:46:46.809Z,8.20
2017-11-25T12:52:05.480Z,7.20
2017-11-25T12:54:33.817Z,7.95
2017-11-25T12:57:02.079Z,7.95
2017-11-25T12:59:30.753Z,7.57
2017-11-25T13:01:59.079Z,7.87
2017-11-25T13:04:27.377Z,8.75
2017-11-25T13:06:55.706Z,7.72
2017-11-25T13:09:24.079Z,7.62
2017-11-25T13:11:52.566Z,8.18
2017-11-25T13:14:20.861Z,8.98
2017-11-25T13:16:49.196Z,7.72
2017-11-25T13:19:17.552Z,9.02
2017-11-25T13:21:45.979Z,9.27
2017-11-25T13:24:14.308Z,8.13
2017-11-25T13:26:44.276Z,7.90
2017-11-25T13:29:12.606Z,8.60
2017-11-25T13:31:40.925Z,8.95
2017-11-25T13:34:09.244Z,9.68
2017-11-25T13:36:40.238Z,9.32
2017-11-25T13:39:08.606Z,9.50
2017-11-25T13:41:36.917Z,7.32
2017-11-25T13:44:05.513Z,8.40
2017-11-25T13:46:35.086Z,8.30
2017-11-25T13:49:03.361Z,8.65
2017-11-25T13:51:31.996Z,9.50
2017-11-25T13:54:01.181Z,8.85
2017-11-25T13:56:31.352Z,8.93
2017-11-25T13:59:01.229Z,8.23
2017-11-25T14:01:29.578Z,7.85
2017-11-25T14:03:58.636Z,8.10
2017-11-25T14:06:26.976Z,7.90
2017-11-25T14:08:56.008Z,7.70
2017-11-25T14:11:25.276Z,7.50
2017-11-25T14:16:55.662Z,8.38
2017-11-25T14:19:23.985Z,7.90
2017-11-25T14:21:53.114Z,7.30
2017-11-25T14:24:21.461Z,7.30
2017-11-25T14:26:50.508Z,7.55
2017-11-25T14:29:18.901Z,8.30
2017-11-25T14:31:47.212Z,7.10
2017-11-25T14:34:16.285Z,6.80
2017-11-25T14:36:44.597Z,7.80
2017-11-25T14:39:12.965Z,7.45
2017-11-25T14:41:42.094Z,7.10
2017-11-25T14:44:10.468Z,6.57
2017-11-25T14:46:38.783Z,6.75
2017-11-25T14:49:07.485Z,6.50
2017-11-25T14:51:36.578Z,6.95
2017-11-25T14:54:05.637Z,7.30
2017-11-25T14:56:33.968Z,6.32
2017-11-25T14:59:02.261Z,7.57
2017-11-25T15:01:30.617Z,6.78
2017-11-25T15:03:59.687Z,5.95
2017-11-25T15:06:28.009Z,6.82
2017-11-25T15:08:56.345Z,6.05
2017-11-25T15:11:24.732Z,6.25
2017-11-25T15:13:53.796Z,6.32
2017-11-25T15:16:22.160Z,6.78
2017-11-25T15:18:50.453Z,7.00
2017-11-25T15:21:22.082Z,6.00
2017-11-25T15:23:50.395Z,6.75
2017-11-25T15:26:18.715Z,6.12
2017-11-25T15:28:47.047Z,6.60
2017-11-25T15:31:20.056Z,5.78
2017-11-25T15:33:48.454Z,6.40
2017-11-25T15:36:16.797Z,6.25
2017-11-25T15:38:45.835Z,5.32
2017-11-25T15:41:14.189Z,5.68
2017-11-25T15:43:42.507Z,5.85
2017-11-25T15:46:11.610Z,5.70
2017-11-25T15:48:40.728Z,5.50
2017-11-25T15:51:09.824Z,5.10
2017-11-25T15:53:38.174Z,5.40
2017-11-25T15:56:06.512Z,5.60
2017-11-25T15:59:04.858Z,6.15
2017-11-25T16:01:33.144Z,5.53
2017-11-25T16:04:03.127Z,5.50
2017-11-25T16:06:34.269Z,5.30
2017-11-25T16:09:02.545Z,5.65
2017-11-25T16:11:30.889Z,4.70
2017-11-25T16:13:59.184Z,6.62
2017-11-25T16:16:27.478Z,5.78
2017-11-25T16:18:55.799Z,5.32
2017-11-25T16:21:24.081Z,5.75
2017-11-25T16:23:52.444Z,4.82
2017-11-25T16:26:20.832Z,5.22
2017-11-25T16:28:49.166Z,5.30
2017-11-25T16:31:17.440Z,4.55
2017-11-25T16:33:47.898Z,5.07
2017-11-25T16:36:16.196Z,4.45
2017-11-25T16:38:44.558Z,4.40
2017-11-25T16:41:12.866Z,5.37
2017-11-25T16:43:41.172Z,4.05
2017-11-25T16:46:09.531Z,4.12
2017-11-25T16:48:37.921Z,4.82
2017-11-25T16:51:06.207Z,4.30
2017-11-25T16:53:34.511Z,4.25
2017-11-25T16:56:03.606Z,4.45
2017-11-25T16:58:32.665Z,4.60
2017-11-25T17:01:00.960Z,5.30
2017-11-25T17:03:30.066Z,4.75
2017-11-25T17:05:58.348Z,5.40
2017-11-25T17:08:26.653Z,5.07
2017-11-25T17:10:54.956Z,4.78
2017-11-25T17:13:23.356Z,4.72
2017-11-25T17:15:53.278Z,5.28
2017-11-25T17:18:21.594Z,5.85
2017-11-25T17:20:49.860Z,4.40
2017-11-25T17:23:18.157Z,4.43
2017-11-25T17:25:46.487Z,4.68
2017-11-25T17:28:15.836Z,4.25
2017-11-25T17:30:44.240Z,4.55
2017-11-25T17:33:12.577Z,4.55
2017-11-25T17:35:40.982Z,5.10
2017-11-25T17:38:10.174Z,4.87
2017-11-25T17:40:39.107Z,4.40
2017-11-25T17:43:11.623Z,5.18
2017-11-25T17:45:40.849Z,4.70
2017-11-25T17:48:09.569Z,4.78
2017-11-25T17:50:47.489Z,6.03
2017-11-25T17:53:15.918Z,5.32
2017-11-25T17:55:44.206Z,4.68
2017-11-25T17:58:12.620Z,4.70
2017-11-25T18:00:41.036Z,5.40
2017-11-25T18:03:09.404Z,5.22
2017-11-25T18:05:37.683Z,5.68
2017-11-25T18:10:40.632Z,5.60
2017-11-25T18:13:09.745Z,4.57
2017-11-25T18:15:38.129Z,5.40
2017-11-25T18:18:06.482Z,9.20
2017-11-25T18:20:35.599Z,7.47
2017-11-25T18:23:03.917Z,5.10
2017-11-25T18:25:32.261Z,5.15
2017-11-25T18:28:00.540Z,4.70
2017-11-25T18:30:28.815Z,5.65
2017-11-25T18:32:57.155Z,4.65
2017-11-25T18:35:25.853Z,4.95
2017-11-25T18:37:54.118Z,4.35
2017-11-25T18:40:23.225Z,4.72
2017-11-25T18:42:51.585Z,4.35
2017-11-25T18:45:20.661Z,4.85
2017-11-25T18:47:49.739Z,4.75
2017-11-25T18:50:18.107Z,5.18
2017-11-25T18:52:47.745Z,4.65
2017-11-25T18:55:16.987Z,4.10
2017-11-25T18:57:45.332Z,4.90
2017-11-25T19:00:14.373Z,4.75
2017-11-25T19:02:42.705Z,4.80
2017-11-25T19:05:11.756Z,4.87
2017-11-25T19:07:40.836Z,5.10
2017-11-25T19:10:09.144Z,5.00
2017-11-25T19:12:37.569Z,4.40
2017-11-25T19:15:05.861Z,4.75
2017-11-25T19:17:34.163Z,4.62
2017-11-25T19:20:02.468Z,4.57
2017-11-25T19:22:31.656Z,5.15
2017-11-25T19:24:59.954Z,4.37
2017-11-25T19:27:29.069Z,4.70
2017-11-25T19:29:57.385Z,4.87
2017-11-25T19:32:25.831Z,5.30
2017-11-25T19:34:54.154Z,5.25
2017-11-25T19:37:22.485Z,4.70
2017-11-25T19:39:50.941Z,5.50
2017-11-25T19:42:19.247Z,5.57
2017-11-25T19:44:47.585Z,5.90
2017-11-25T19:47:15.877Z,4.95
2017-11-25T19:49:44.276Z,5.15
2017-11-25T19:52:12.594Z,5.57
2017-11-25T19:54:42.785Z,5.57
2017-11-25T19:57:11.073Z,5.07
2017-11-25T19:59:39.876Z,5.18
2017-11-25T20:02:08.976Z,4.65
2017-11-25T20:04:37.332Z,5.80
2017-11-25T20:07:05.671Z,5.45
2017-11-25T20:09:33.978Z,6.00
2017-11-25T20:12:02.268Z,6.05
2017-11-25T20:14:30.773Z,6.90
2017-11-25T20:16:59.141Z,6.10
2017-11-25T20:19:28.288Z,5.12
2017-11-25T20:21:56.660Z,5.65
2017-11-25T20:24:25.789Z,5.65
2017-11-25T20:26:54.949Z,6.32
2017-11-25T20:29:24.341Z,6.05
2017-11-25T20:31:52.633Z,6.15
2017-11-25T20:34:20.933Z,6.05
2017-11-25T20:36:50.259Z,6.90
2017-11-25T20:39:18.636Z,5.75
2017-11-25T20:41:46.945Z,6.10
2017-11-25T20:44:15.256Z,6.50
2017-11-25T20:46:43.651Z,6.03
2017-11-25T20:49:12.745Z,5.82
2017-11-25T20:51:41.909Z,6.18
2017-11-25T20:54:10.216Z,6.28
2017-11-25T20:56:39.284Z,5.50
2017-11-25T20:59:07.655Z,6.25
2017-11-25T21:01:38.665Z,5.32
2017-11-25T21:04:07.042Z,6.30
2017-11-25T21:06:35.426Z,6.05
2017-11-25T21:09:03.777Z,6.50
2017-11-25T21:11:34.667Z,5.70
2017-11-25T21:14:03.133Z,6.57
2017-11-25T21:16:32.169Z,6.57
2017-11-25T21:19:01.238Z,5.68
2017-11-25T21:21:29.512Z,6.00
2017-11-25T21:23:57.966Z,5.85
2017-11-25T21:26:26.599Z,6.10
2017-11-25T21:28:55.669Z,6.45
2017-11-25T21:31:24.022Z,5.80
2017-11-25T21:33:53.385Z,6.60
2017-11-25T21:36:21.682Z,6.20
2017-11-25T21:38:49.975Z,6.28
2017-11-25T21:41:18.617Z,7.05
2017-11-25T21:43:47.684Z,5.40
2017-11-25T21:46:16.089Z,5.70
2017-11-25T21:48:44.425Z,5.50
2017-11-25T21:51:12.740Z,5.15
2017-11-25T21:53:41.051Z,5.68
2017-11-25T21:56:09.359Z,4.70
2017-11-25T21:58:37.672Z,4.93
2017-11-25T22:01:05.957Z,5.57
2017-11-25T22:03:35.040Z,5.28
2017-11-25T22:06:04.106Z,5.00
2017-11-25T22:08:32.393Z,5.00
2017-11-25T22:11:00.765Z,5.35
2017-11-25T22:13:29.068Z,4.40
2017-11-25T22:15:58.139Z,4.78
2017-11-25T22:18:26.537Z,5.65
2017-11-25T22:20:54.845Z,5.37
2017-11-25T22:23:23.113Z,5.18
2017-11-25T22:25:51.406Z,4.12
2017-11-25T22:28:19.685Z,5.07
2017-11-25T22:30:47.993Z,4.90
2017-11-25T22:33:16.313Z,4.72
2017-11-25T22:35:44.643Z,4.53
2017-11-25T22:38:13.321Z,4.18
2017-11-25T22:40:41.633Z,4.70
2017-11-25T22:43:13.784Z,4.62
2017-11-25T22:45:42.152Z,4.62
2017-11-25T22:48:10.512Z,4.53
2017-11-25T22:50:38.820Z,4.57
2017-11-25T22:53:07.875Z,4.05
2017-11-25T22:55:36.973Z,4.80
2017-11-25T22:58:05.262Z,4.45
2017-11-25T23:00:34.313Z,3.85
2017-11-25T23:03:02.614Z,3.90
2017-11-25T23:05:30.998Z,4.35
2017-11-25T23:07:59.308Z,3.70
2017-11-25T23:10:27.580Z,4.18
2017-11-25T23:12:55.852Z,3.95
2017-11-25T23:15:24.120Z,3.60
2017-11-25T23:17:52.475Z,3.47
2017-11-25T23:20:21.526Z,4.05
2017-11-25T23:22:49.829Z,3.45
2017-11-25T23:25:18.151Z,3.50
2017-11-25T23:27:46.424Z,3.87
2017-11-25T23:30:14.739Z,3.55
2017-11-25T23:32:43.045Z,4.25
2017-11-25T23:35:12.181Z,3.50
2017-11-25T23:37:41.350Z,3.87
2017-11-25T23:40:09.690Z,3.30
2017-11-25T23:42:38.047Z,3.70
2017-11-25T23:45:07.100Z,3.83
2017-11-25T23:47:35.400Z,3.17
2017-11-25T23:50:04.444Z,3.10
2017-11-25T23:52:33.029Z,3.15
2017-11-25T23:55:01.377Z,3.65
2017-11-25T23:57:29.705Z,3.72
2017-11-25T23:59:58.125Z,3.20
